Time;durP1;ratioP1;P1;durP2;ratioP2;P2;SDS_P1;SDS_P2;PMS_P1;PMS_P2;Temp;Humidity;BMP_temperature;BMP_pressure;BME280_temperature;BME280_humidity;BME280_pressure;Samples;Min_cycle;Max_cycle;Signal;HPM_P1;HPM_P2
2023/07/24 00:02:24;;;;;;;6.47;3.40;;;;;;;;;;5114036;27;20036;-87
2023/07/24 00:04:50;;;;;;;7.60;3.20;;;;;;;;;;5133595;27;20030;-87
2023/07/24 00:07:15;;;;;;;2.88;1.65;;;;;;;;;;5136029;27;20038;-87
2023/07/24 00:09:40;;;;;;;4.35;2.03;;;;;;;;;;5120301;27;20110;-87
2023/07/24 00:12:06;;;;;;;4.90;2.42;;;;;;;;;;5117735;27;20019;-86
2023/07/24 00:14:32;;;;;;;4.63;2.35;;;;;;;;;;5133506;27;20023;-88
2023/07/24 00:16:57;;;;;;;7.50;3.17;;;;;;;;;;5117550;27;20089;-88
2023/07/24 00:19:23;;;;;;;6.25;2.35;;;;;;;;;;5114006;27;20608;-87
2023/07/24 00:21:48;;;;;;;6.57;2.90;;;;;;;;;;5116508;27;20030;-87
2023/07/24 00:24:14;;;;;;;4.32;1.40;;;;;;;;;;5135420;27;20436;-87
2023/07/24 00:26:39;;;;;;;5.70;2.20;;;;;;;;;;5131644;27;20023;-87
2023/07/24 00:29:04;;;;;;;9.55;3.75;;;;;;;;;;5134638;27;20027;-87
2023/07/24 00:31:30;;;;;;;3.72;1.80;;;;;;;;;;5112828;27;20026;-87
2023/07/24 00:33:55;;;;;;;7.63;2.97;;;;;;;;;;5135107;27;20023;-87
2023/07/24 00:36:21;;;;;;;6.28;1.70;;;;;;;;;;5138613;27;20102;-88
2023/07/24 00:38:46;;;;;;;6.53;2.65;;;;;;;;;;5129567;27;20027;-89
2023/07/24 00:41:11;;;;;;;1.95;1.40;;;;;;;;;;5134361;27;20026;-87
2023/07/24 00:43:37;;;;;;;3.55;2.00;;;;;;;;;;5116849;27;20035;-88
2023/07/24 00:46:03;;;;;;;3.50;2.25;;;;;;;;;;5117197;27;20519;-89
2023/07/24 00:48:30;;;;;;;5.75;2.55;;;;;;;;;;5134514;27;20051;-86
2023/07/24 00:50:56;;;;;;;2.28;1.90;;;;;;;;;;5131015;27;20371;-85
2023/07/24 00:53:21;;;;;;;4.25;2.13;;;;;;;;;;5115921;27;20034;-87
2023/07/24 00:55:47;;;;;;;6.57;2.10;;;;;;;;;;5129268;27;20023;-91
2023/07/24 00:58:12;;;;;;;4.95;2.33;;;;;;;;;;5116316;27;20072;-90
2023/07/24 01:00:41;;;;;;;5.68;2.38;;;;;;;;;;5111783;27;20023;-86
2023/07/24 01:03:07;;;;;;;3.20;2.17;;;;;;;;;;5131665;27;20046;-89
2023/07/24 01:05:32;;;;;;;4.93;2.70;;;;;;;;;;5135009;27;20428;-87
2023/07/24 01:07:58;;;;;;;6.53;2.78;;;;;;;;;;5111478;27;20023;-89
2023/07/24 01:10:23;;;;;;;5.50;2.72;;;;;;;;;;5116135;27;20486;-88
2023/07/24 01:13:25;;;;;;;4.05;3.13;;;;;;;;;;5116206;27;20058;-89
2023/07/24 01:16:14;;;;;;;7.20;3.22;;;;;;;;;;5102392;27;20031;-90
2023/07/24 01:18:39;;;;;;;7.85;3.97;;;;;;;;;;5116564;27;20023;-90
2023/07/24 01:21:07;;;;;;;5.05;3.10;;;;;;;;;;5134833;27;20103;-90
2023/07/24 01:23:52;;;;;;;8.27;2.80;;;;;;;;;;5116279;27;20395;-86
2023/07/24 01:26:19;;;;;;;6.75;2.17;;;;;;;;;;5131875;27;20023;-88
2023/07/24 01:28:45;;;;;;;5.65;2.38;;;;;;;;;;5114525;27;20033;-90
2023/07/24 01:31:11;;;;;;;6.90;3.65;;;;;;;;;;5114306;27;20484;-85
2023/07/24 01:33:37;;;;;;;7.45;2.83;;;;;;;;;;5114561;27;20023;-86
2023/07/24 01:36:04;;;;;;;10.40;3.38;;;;;;;;;;5132931;27;20104;-86
2023/07/24 01:38:32;;;;;;;6.97;2.75;;;;;;;;;;5113770;27;20027;-88
2023/07/24 01:40:59;;;;;;;4.63;2.80;;;;;;;;;;5113315;27;20080;-89
2023/07/24 01:43:28;;;;;;;5.75;3.22;;;;;;;;;;5114421;27;20121;-89
2023/07/24 01:45:54;;;;;;;6.55;2.22;;;;;;;;;;5129754;27;20368;-89
2023/07/24 01:48:19;;;;;;;9.30;2.78;;;;;;;;;;5133442;27;20027;-88
2023/07/24 01:50:44;;;;;;;11.68;3.22;;;;;;;;;;5130188;27;20026;-89
2023/07/24 01:53:10;;;;;;;4.43;1.60;;;;;;;;;;5133343;27;20031;-88
2023/07/24 01:55:35;;;;;;;3.25;1.90;;;;;;;;;;5113099;27;20042;-89
2023/07/24 01:58:01;;;;;;;8.18;3.08;;;;;;;;;;5133487;27;20034;-89
2023/07/24 02:00:26;;;;;;;6.25;3.22;;;;;;;;;;5112991;27;20060;-89
2023/07/24 02:02:52;;;;;;;3.05;1.48;;;;;;;;;;5111369;27;20027;-89
2023/07/24 02:05:17;;;;;;;3.85;2.42;;;;;;;;;;5115856;27;20034;-87
2023/07/24 02:07:43;;;;;;;4.57;2.80;;;;;;;;;;5131373;27;20080;-89
2023/07/24 02:10:09;;;;;;;8.75;2.13;;;;;;;;;;5130483;27;20106;-86
2023/07/24 02:12:34;;;;;;;7.25;3.15;;;;;;;;;;5132996;27;20035;-88
2023/07/24 02:15:00;;;;;;;3.08;2.13;;;;;;;;;;5132057;27;20851;-88
2023/07/24 02:17:25;;;;;;;6.18;2.65;;;;;;;;;;5112931;27;20031;-88
2023/07/24 02:19:51;;;;;;;7.28;3.20;;;;;;;;;;5129935;27;20030;-88
2023/07/24 02:22:16;;;;;;;12.77;3.92;;;;;;;;;;5113356;28;20030;-86
2023/07/24 02:24:42;;;;;;;5.93;2.80;;;;;;;;;;5130707;27;20494;-87
2023/07/24 02:27:07;;;;;;;5.82;3.25;;;;;;;;;;5132826;27;20027;-86
2023/07/24 02:29:33;;;;;;;5.72;3.10;;;;;;;;;;5113503;28;20026;-86
2023/07/24 02:31:59;;;;;;;4.50;2.28;;;;;;;;;;5114234;27;20027;-88
2023/07/24 02:34:26;;;;;;;8.45;3.25;;;;;;;;;;5132741;27;20109;-88
2023/07/24 02:36:55;;;;;;;5.72;2.60;;;;;;;;;;5128719;28;20023;-88
2023/07/24 02:39:21;;;;;;;3.58;2.00;;;;;;;;;;5114753;28;20420;-86
2023/07/24 02:41:48;;;;;;;3.92;2.30;;;;;;;;;;5132085;28;20023;-87
2023/07/24 02:44:13;;;;;;;6.78;3.13;;;;;;;;;;5108584;28;20502;-89
2023/07/24 02:46:39;;;;;;;6.15;2.90;;;;;;;;;;5115288;28;20023;-89
2023/07/24 02:49:05;;;;;;;7.28;2.67;;;;;;;;;;5115220;28;20099;-90
2023/07/24 02:51:30;;;;;;;3.92;1.88;;;;;;;;;;5113273;28;20455;-89
2023/07/24 02:53:56;;;;;;;9.05;2.25;;;;;;;;;;5132636;28;20023;-87
2023/07/24 02:56:22;;;;;;;6.63;3.05;;;;;;;;;;5133009;28;20030;-86
2023/07/24 02:58:47;;;;;;;6.40;3.30;;;;;;;;;;5136158;27;20015;-86
2023/07/24 03:01:14;;;;;;;6.50;3.33;;;;;;;;;;5133910;27;20364;-87
2023/07/24 03:03:40;;;;;;;4.50;2.10;;;;;;;;;;5134670;27;20420;-88
2023/07/24 03:06:05;;;;;;;3.53;2.53;;;;;;;;;;5135876;27;20080;-90
2023/07/24 03:08:31;;;;;;;4.95;2.60;;;;;;;;;;5134213;27;20027;-87
2023/07/24 03:10:57;;;;;;;5.15;2.50;;;;;;;;;;5131184;27;20023;-88
2023/07/24 03:13:22;;;;;;;5.82;2.05;;;;;;;;;;5136782;27;20042;-86
2023/07/24 03:15:55;;;;;;;6.00;2.58;;;;;;;;;;5136758;27;20019;-87
2023/07/24 03:18:21;;;;;;;8.82;3.20;;;;;;;;;;5117544;27;20390;-85
2023/07/24 03:20:47;;;;;;;4.85;1.88;;;;;;;;;;5134457;27;20030;-88
2023/07/24 03:23:12;;;;;;;6.43;3.45;;;;;;;;;;5135506;27;20106;-87
2023/07/24 03:25:38;;;;;;;6.18;2.97;;;;;;;;;;5114662;27;20491;-88
2023/07/24 03:28:06;;;;;;;5.82;2.83;;;;;;;;;;5116489;27;20557;-87
2023/07/24 03:30:32;;;;;;;3.30;1.70;;;;;;;;;;5113759;27;20494;-86
2023/07/24 03:32:57;;;;;;;4.53;2.17;;;;;;;;;;5116691;27;20015;-86
2023/07/24 03:35:23;;;;;;;4.18;2.50;;;;;;;;;;5117614;27;20031;-87
2023/07/24 03:37:49;;;;;;;4.18;1.75;;;;;;;;;;5117597;27;20106;-88
2023/07/24 03:40:15;;;;;;;3.75;1.42;;;;;;;;;;5137340;27;20087;-87
2023/07/24 03:42:41;;;;;;;5.18;2.28;;;;;;;;;;5135760;27;20103;-87
2023/07/24 03:45:07;;;;;;;7.00;2.42;;;;;;;;;;5135573;27;20067;-86
2023/07/24 03:47:32;;;;;;;4.75;2.38;;;;;;;;;;5136208;27;20023;-86
2023/07/24 03:49:58;;;;;;;3.33;2.08;;;;;;;;;;5136952;27;20118;-86
2023/07/24 03:52:23;;;;;;;9.40;3.85;;;;;;;;;;5133802;27;20027;-87
2023/07/24 03:54:49;;;;;;;5.88;2.85;;;;;;;;;;5134965;27;20370;-87
2023/07/24 03:57:14;;;;;;;2.85;1.23;;;;;;;;;;5132726;27;20482;-86
2023/07/24 03:59:40;;;;;;;3.08;1.75;;;;;;;;;;5134673;27;20054;-88
2023/07/24 04:02:05;;;;;;;6.03;2.40;;;;;;;;;;5117224;27;20466;-87
2023/07/24 04:04:31;;;;;;;5.20;3.08;;;;;;;;;;5116953;27;20051;-88
2023/07/24 04:06:57;;;;;;;4.00;1.70;;;;;;;;;;5135440;27;20026;-88
2023/07/24 04:09:22;;;;;;;3.58;2.83;;;;;;;;;;5133564;27;20379;-88
2023/07/24 04:11:48;;;;;;;4.20;2.20;;;;;;;;;;5133985;27;20026;-89
2023/07/24 04:14:21;;;;;;;3.03;1.42;;;;;;;;;;5136078;27;20015;-88
2023/07/24 04:16:47;;;;;;;9.63;2.28;;;;;;;;;;5129821;27;20386;-89
2023/07/24 04:19:12;;;;;;;4.00;1.95;;;;;;;;;;5114018;27;20038;-89
2023/07/24 04:21:39;;;;;;;4.95;1.67;;;;;;;;;;5117437;27;20023;-89
2023/07/24 04:24:05;;;;;;;2.70;1.67;;;;;;;;;;5135180;27;20092;-90
2023/07/24 04:26:30;;;;;;;2.67;1.73;;;;;;;;;;5132680;27;20015;-87
2023/07/24 04:28:56;;;;;;;6.20;2.97;;;;;;;;;;5116465;27;20023;-87
2023/07/24 04:31:21;;;;;;;4.43;2.33;;;;;;;;;;5116408;27;20039;-87
2023/07/24 04:33:49;;;;;;;3.85;2.35;;;;;;;;;;5134866;27;20023;-86
2023/07/24 04:36:15;;;;;;;3.65;1.95;;;;;;;;;;5128680;27;20474;-85
2023/07/24 04:38:41;;;;;;;8.05;3.47;;;;;;;;;;5115160;27;20169;-85
2023/07/24 04:41:06;;;;;;;3.47;1.70;;;;;;;;;;5115825;27;20037;-85
2023/07/24 04:43:32;;;;;;;4.88;2.17;;;;;;;;;;5132834;27;20487;-86
2023/07/24 04:45:57;;;;;;;4.63;2.60;;;;;;;;;;5131148;27;20047;-87
2023/07/24 04:48:23;;;;;;;2.65;1.60;;;;;;;;;;5114998;27;20028;-87
2023/07/24 04:50:55;;;;;;;2.55;1.70;;;;;;;;;;5115977;27;20023;-87
2023/07/24 04:53:21;;;;;;;4.60;2.03;;;;;;;;;;5130621;27;20034;-90
2023/07/24 04:55:47;;;;;;;2.33;1.45;;;;;;;;;;5113144;27;20027;-86
2023/07/24 04:58:12;;;;;;;3.67;2.03;;;;;;;;;;5115165;27;20101;-86
2023/07/24 05:00:38;;;;;;;8.95;2.50;;;;;;;;;;5132609;27;20027;-87
2023/07/24 05:03:04;;;;;;;3.55;1.88;;;;;;;;;;5133011;27;20069;-87
2023/07/24 05:05:31;;;;;;;5.82;3.05;;;;;;;;;;5132285;27;20034;-86
2023/07/24 05:07:56;;;;;;;6.80;2.47;;;;;;;;;;5114060;27;20034;-89
2023/07/24 05:10:22;;;;;;;3.45;1.67;;;;;;;;;;5114405;27;20023;-86
2023/07/24 05:12:47;;;;;;;4.97;1.80;;;;;;;;;;5131361;27;20562;-85
2023/07/24 05:15:16;;;;;;;2.72;1.75;;;;;;;;;;5112557;27;20907;-87
2023/07/24 05:17:42;;;;;;;3.83;2.20;;;;;;;;;;5113338;27;20031;-88
2023/07/24 05:20:08;;;;;;;3.33;2.05;;;;;;;;;;5131715;27;20467;-86
2023/07/24 05:22:34;;;;;;;3.92;3.00;;;;;;;;;;5127938;27;20143;-87
2023/07/24 05:24:59;;;;;;;4.50;2.10;;;;;;;;;;5111576;27;20101;-88
2023/07/24 05:27:24;;;;;;;3.80;1.98;;;;;;;;;;5115205;27;20386;-86
2023/07/24 05:29:50;;;;;;;3.55;2.72;;;;;;;;;;5125895;27;20027;-89
2023/07/24 05:32:15;;;;;;;5.15;3.28;;;;;;;;;;5127278;27;20034;-89
2023/07/24 05:34:41;;;;;;;7.05;3.60;;;;;;;;;;5128696;27;20467;-87
2023/07/24 05:37:15;;;;;;;4.53;2.58;;;;;;;;;;5131682;27;20025;-86
2023/07/24 05:39:41;;;;;;;6.20;3.05;;;;;;;;;;5110963;27;20838;-89
2023/07/24 05:42:06;;;;;;;4.25;1.75;;;;;;;;;;5114114;27;20023;-90
2023/07/24 05:44:33;;;;;;;2.92;2.08;;;;;;;;;;5112390;27;20221;-84
2023/07/24 05:46:58;;;;;;;4.20;2.63;;;;;;;;;;5128052;27;20026;-84
2023/07/24 05:49:23;;;;;;;4.03;2.28;;;;;;;;;;5130527;27;20368;-84
2023/07/24 05:51:49;;;;;;;4.25;2.97;;;;;;;;;;5126684;27;20542;-84
2023/07/24 05:54:14;;;;;;;4.55;2.63;;;;;;;;;;5132249;27;20049;-84
2023/07/24 05:56:40;;;;;;;4.45;2.85;;;;;;;;;;5129610;27;20056;-84
2023/07/24 05:59:05;;;;;;;4.72;2.65;;;;;;;;;;5131243;27;20023;-84
2023/07/24 06:01:31;;;;;;;5.28;2.38;;;;;;;;;;5131834;27;20411;-83
2023/07/24 06:03:56;;;;;;;4.93;2.72;;;;;;;;;;5132533;27;20383;-84
2023/07/24 06:06:22;;;;;;;4.38;2.60;;;;;;;;;;5109871;27;20042;-83
2023/07/24 06:08:47;;;;;;;4.00;1.88;;;;;;;;;;5131996;27;20588;-82
2023/07/24 06:11:13;;;;;;;8.75;2.72;;;;;;;;;;5131935;27;20031;-83
2023/07/24 06:13:38;;;;;;;4.50;2.63;;;;;;;;;;5131871;27;20031;-83
2023/07/24 06:16:04;;;;;;;4.30;1.67;;;;;;;;;;5131912;27;20403;-83
2023/07/24 06:18:29;;;;;;;5.05;2.72;;;;;;;;;;5131216;27;20019;-83
2023/07/24 06:20:55;;;;;;;2.85;2.15;;;;;;;;;;5130220;27;20038;-84
2023/07/24 06:23:20;;;;;;;5.80;3.03;;;;;;;;;;5128652;27;20027;-81
2023/07/24 06:25:46;;;;;;;4.97;2.67;;;;;;;;;;5131933;27;20055;-84
2023/07/24 06:28:11;;;;;;;3.42;2.13;;;;;;;;;;5130039;27;20474;-85
2023/07/24 06:30:38;;;;;;;2.95;2.05;;;;;;;;;;5131636;27;20031;-84
2023/07/24 06:33:04;;;;;;;3.83;2.50;;;;;;;;;;5130734;27;20019;-84
2023/07/24 06:35:30;;;;;;;2.33;1.67;;;;;;;;;;5131776;27;20483;-83
2023/07/24 06:37:55;;;;;;;3.88;1.85;;;;;;;;;;5131026;28;20757;-83
2023/07/24 06:40:21;;;;;;;3.65;1.63;;;;;;;;;;5131153;28;20437;-83
2023/07/24 06:42:46;;;;;;;3.88;2.00;;;;;;;;;;5108035;28;20027;-82
2023/07/24 06:45:12;;;;;;;7.50;2.97;;;;;;;;;;5129920;28;20053;-83
2023/07/24 06:47:37;;;;;;;8.05;2.63;;;;;;;;;;5130568;28;20053;-82
2023/07/24 06:50:04;;;;;;;7.20;2.30;;;;;;;;;;5125517;28;20023;-82
2023/07/24 06:52:30;;;;;;;3.78;2.65;;;;;;;;;;5110854;28;20453;-82
2023/07/24 06:54:55;;;;;;;2.80;1.92;;;;;;;;;;5125151;28;20119;-85
2023/07/24 06:57:20;;;;;;;2.17;1.58;;;;;;;;;;5126283;28;20027;-85
2023/07/24 06:59:46;;;;;;;8.75;3.42;;;;;;;;;;5127338;27;20462;-83
2023/07/24 07:02:11;;;;;;;2.17;1.70;;;;;;;;;;5111675;28;20467;-83
2023/07/24 07:04:37;;;;;;;3.78;2.60;;;;;;;;;;5130785;28;20372;-81
2023/07/24 07:07:03;;;;;;;6.07;2.22;;;;;;;;;;5110703;28;20614;-82
2023/07/24 07:09:29;;;;;;;16.42;2.55;;;;;;;;;;5128257;27;20033;-84
2023/07/24 07:11:54;;;;;;;8.63;2.38;;;;;;;;;;5130708;28;20102;-85
2023/07/24 07:14:20;;;;;;;4.57;2.45;;;;;;;;;;5130733;28;20050;-82
2023/07/24 07:16:47;;;;;;;3.55;1.38;;;;;;;;;;5130701;28;20019;-83
2023/07/24 07:19:13;;;;;;;4.07;1.98;;;;;;;;;;5126614;28;20028;-84
2023/07/24 07:21:41;;;;;;;2.00;1.58;;;;;;;;;;5110274;28;20110;-84
2023/07/24 07:24:07;;;;;;;3.50;2.50;;;;;;;;;;5126476;28;20108;-84
2023/07/24 07:26:33;;;;;;;1.80;1.50;;;;;;;;;;5130377;28;20153;-83
2023/07/24 07:28:59;;;;;;;2.10;1.60;;;;;;;;;;5130959;28;20026;-84
2023/07/24 07:31:24;;;;;;;5.75;2.28;;;;;;;;;;5110622;28;20031;-84
2023/07/24 07:33:50;;;;;;;3.08;1.73;;;;;;;;;;5130606;27;20436;-84
2023/07/24 07:36:15;;;;;;;4.13;2.13;;;;;;;;;;5130177;27;20027;-83
2023/07/24 07:38:41;;;;;;;3.55;2.05;;;;;;;;;;5130535;28;20145;-82
2023/07/24 07:41:06;;;;;;;3.40;1.73;;;;;;;;;;5123145;28;20109;-82
2023/07/24 07:43:32;;;;;;;3.80;1.80;;;;;;;;;;5130839;27;20027;-83
2023/07/24 07:45:59;;;;;;;4.32;2.30;;;;;;;;;;5114524;27;20039;-83
2023/07/24 07:48:24;;;;;;;3.22;1.70;;;;;;;;;;5112483;27;20043;-83
2023/07/24 07:50:51;;;;;;;4.25;2.20;;;;;;;;;;5134025;27;20084;-81
2023/07/24 07:53:17;;;;;;;3.42;2.13;;;;;;;;;;5113907;27;20113;-82
2023/07/24 07:55:42;;;;;;;6.15;3.03;;;;;;;;;;5133798;27;20115;-81
2023/07/24 07:58:08;;;;;;;3.30;1.55;;;;;;;;;;5126381;27;20019;-82
2023/07/24 08:00:34;;;;;;;4.50;2.30;;;;;;;;;;5133717;27;20034;-82
2023/07/24 08:02:59;;;;;;;3.95;1.90;;;;;;;;;;5113716;27;20027;-82
2023/07/24 08:05:25;;;;;;;3.17;2.05;;;;;;;;;;5133049;27;20056;-83
2023/07/24 08:07:50;;;;;;;4.20;1.65;;;;;;;;;;5114108;27;20027;-85
2023/07/24 08:10:16;;;;;;;7.20;2.60;;;;;;;;;;5133294;27;20031;-83
2023/07/24 08:12:42;;;;;;;4.18;2.35;;;;;;;;;;5132460;27;20069;-84
2023/07/24 08:15:08;;;;;;;5.63;2.58;;;;;;;;;;5129220;27;20043;-83
2023/07/24 08:17:34;;;;;;;3.92;1.80;;;;;;;;;;5133953;27;20127;-84
2023/07/24 08:19:59;;;;;;;3.70;2.10;;;;;;;;;;5122552;27;20110;-82
2023/07/24 08:22:25;;;;;;;7.95;2.67;;;;;;;;;;5130977;27;20122;-84
2023/07/24 08:24:51;;;;;;;4.57;2.42;;;;;;;;;;5131412;27;20045;-80
2023/07/24 08:27:17;;;;;;;7.05;2.65;;;;;;;;;;5131343;27;20030;-81
2023/07/24 08:29:42;;;;;;;5.22;2.78;;;;;;;;;;5125210;27;20036;-83
2023/07/24 08:32:08;;;;;;;2.75;1.83;;;;;;;;;;5125328;27;20023;-83
2023/07/24 08:34:33;;;;;;;2.20;1.70;;;;;;;;;;5140156;27;20027;-83
2023/07/24 08:36:58;;;;;;;3.45;2.15;;;;;;;;;;5132145;27;20027;-82
2023/07/24 08:39:24;;;;;;;3.15;1.88;;;;;;;;;;5129975;27;20510;-81
2023/07/24 08:41:49;;;;;;;6.05;2.15;;;;;;;;;;5131247;27;20091;-83
2023/07/24 08:44:15;;;;;;;3.42;1.88;;;;;;;;;;5132960;27;20074;-82
2023/07/24 08:46:45;;;;;;;2.28;1.55;;;;;;;;;;5132791;27;20023;-82
2023/07/24 08:49:14;;;;;;;;;;;;;;;;;;5128680;27;20100;-83
2023/07/24 08:51:43;;;;;;;5.88;3.38;;;;;;;;;;5130265;27;20279;-84
2023/07/24 08:54:11;;;;;;;2.25;1.48;;;;;;;;;;5113432;27;20467;-83
2023/07/24 08:56:39;;;;;;;4.60;2.13;;;;;;;;;;5128663;27;20076;-83
2023/07/24 08:59:05;;;;;;;1.52;1.17;;;;;;;;;;5132467;27;20041;-83
2023/07/24 09:01:31;;;;;;;3.78;2.00;;;;;;;;;;5114111;27;20023;-80
2023/07/24 09:03:57;;;;;;;1.95;1.45;;;;;;;;;;5132880;27;20364;-83
2023/07/24 09:06:22;;;;;;;3.75;2.08;;;;;;;;;;5132500;27;20390;-82
2023/07/24 09:08:48;;;;;;;4.90;1.92;;;;;;;;;;5129910;27;20026;-82
2023/07/24 09:11:14;;;;;;;4.72;2.15;;;;;;;;;;5127750;27;20444;-82
2023/07/24 09:13:42;;;;;;;3.95;2.03;;;;;;;;;;5130792;27;20015;-83
2023/07/24 09:16:08;;;;;;;2.00;1.73;;;;;;;;;;5132354;27;20029;-83
2023/07/24 09:18:41;;;;;;;2.88;1.95;;;;;;;;;;5114243;27;20110;-82
2023/07/24 09:21:06;;;;;;;7.20;3.10;;;;;;;;;;5129533;27;20034;-83
2023/07/24 09:23:32;;;;;;;2.33;1.58;;;;;;;;;;5113823;27;20095;-81
2023/07/24 09:25:57;;;;;;;2.95;0.80;;;;;;;;;;5130693;27;20041;-82
2023/07/24 09:28:23;;;;;;;3.13;1.75;;;;;;;;;;5129438;27;20031;-82
2023/07/24 09:31:00;;;;;;;3.60;2.13;;;;;;;;;;5130852;27;20027;-82
2023/07/24 09:33:38;;;;;;;3.45;1.98;;;;;;;;;;5129576;27;20423;-83
2023/07/24 09:36:07;;;;;;;2.38;1.70;;;;;;;;;;5134429;27;20022;-82
2023/07/24 09:38:33;;;;;;;3.72;2.50;;;;;;;;;;5129216;27;20032;-84
2023/07/24 09:41:01;;;;;;;9.55;2.03;;;;;;;;;;5129762;27;20031;-83
2023/07/24 09:43:28;;;;;;;4.22;2.53;;;;;;;;;;5128473;27;20471;-85
2023/07/24 09:45:54;;;;;;;3.97;1.85;;;;;;;;;;5127360;27;20043;-85
2023/07/24 09:48:21;;;;;;;2.45;2.05;;;;;;;;;;5132496;27;20509;-85
2023/07/24 09:50:48;;;;;;;1.98;1.10;;;;;;;;;;5113297;27;20048;-85
2023/07/24 09:53:36;;;;;;;3.35;2.17;;;;;;;;;;5134017;27;20075;-86
2023/07/24 09:56:04;;;;;;;2.97;2.10;;;;;;;;;;5131801;27;20127;-83
2023/07/24 09:58:32;;;;;;;4.73;2.27;;;;;;;;;;5131120;27;20027;-87
2023/07/24 10:00:58;;;;;;;3.03;1.67;;;;;;;;;;5131582;27;20027;-87
2023/07/24 10:03:24;;;;;;;3.03;1.85;;;;;;;;;;5111435;27;20135;-85
2023/07/24 10:05:53;;;;;;;2.25;1.83;;;;;;;;;;5131893;27;20030;-87
2023/07/24 10:08:19;;;;;;;3.20;1.98;;;;;;;;;;5131046;27;20102;-85
2023/07/24 10:10:45;;;;;;;4.05;2.15;;;;;;;;;;5129660;27;20065;-86
2023/07/24 10:13:14;;;;;;;3.72;2.22;;;;;;;;;;5131812;27;20440;-86
2023/07/24 10:15:40;;;;;;;;;;;;;;;;;;5130218;27;20519;-87
2023/07/24 10:18:07;;;;;;;2.97;2.08;;;;;;;;;;5131649;27;20009;-87
2023/07/24 10:20:40;;;;;;;1.23;0.90;;;;;;;;;;5130635;27;20408;-86
2023/07/24 10:23:15;;;;;;;3.00;1.60;;;;;;;;;;5127808;27;20073;-87
2023/07/24 10:25:41;;;;;;;4.35;1.88;;;;;;;;;;5130735;27;20511;-86
2023/07/24 10:28:10;;;;;;;5.90;2.78;;;;;;;;;;5129918;27;20027;-86
2023/07/24 10:30:40;;;;;;;2.33;1.50;;;;;;;;;;5130462;27;20023;-87
2023/07/24 10:33:17;;;;;;;2.75;1.88;;;;;;;;;;5129822;27;20027;-86
2023/07/24 10:35:48;;;;;;;2.05;1.27;;;;;;;;;;5130845;27;20113;-85
2023/07/24 10:38:16;;;;;;;3.75;1.83;;;;;;;;;;5129272;27;20023;-85
2023/07/24 10:40:44;;;;;;;2.78;1.88;;;;;;;;;;5112802;28;20490;-85
2023/07/24 10:43:12;;;;;;;3.05;1.65;;;;;;;;;;5131187;27;20485;-84
2023/07/24 10:45:51;;;;;;;3.75;2.08;;;;;;;;;;5127220;28;20125;-86
2023/07/24 10:48:18;;;;;;;4.03;2.03;;;;;;;;;;5110183;28;20029;-85
2023/07/24 10:50:46;;;;;;;3.72;1.25;;;;;;;;;;5131581;28;20042;-84
2023/07/24 10:53:15;;;;;;;0.85;0.80;;;;;;;;;;5128338;28;20039;-86
2023/07/24 10:55:44;;;;;;;1.92;1.30;;;;;;;;;;5130147;27;20027;-86
2023/07/24 10:58:13;;;;;;;3.28;2.03;;;;;;;;;;5129298;28;20041;-87
2023/07/24 11:00:40;;;;;;;1.40;1.25;;;;;;;;;;5111895;28;20483;-83
2023/07/24 11:03:09;;;;;;;2.05;1.10;;;;;;;;;;5112455;28;20039;-83
2023/07/24 11:05:34;;;;;;;4.90;1.40;;;;;;;;;;5126861;28;20371;-85
2023/07/24 11:08:00;;;;;;;2.15;1.52;;;;;;;;;;5112834;28;20038;-84
2023/07/24 11:10:26;;;;;;;1.48;1.17;;;;;;;;;;5112816;28;20523;-83
2023/07/24 11:12:52;;;;;;;3.35;1.67;;;;;;;;;;5109430;28;20022;-84
2023/07/24 11:15:25;;;;;;;1.65;1.10;;;;;;;;;;5107162;28;20034;-85
2023/07/24 11:17:51;;;;;;;2.45;1.38;;;;;;;;;;5128697;28;20023;-84
2023/07/24 11:20:16;;;;;;;1.08;0.80;;;;;;;;;;5130274;27;20030;-83
2023/07/24 11:22:43;;;;;;;2.67;1.85;;;;;;;;;;5135047;27;20027;-84
2023/07/24 11:25:11;;;;;;;2.50;1.48;;;;;;;;;;5131425;27;20406;-85
2023/07/24 11:27:43;;;;;;;2.92;1.90;;;;;;;;;;5131690;27;20039;-84
2023/07/24 11:30:12;;;;;;;2.45;1.63;;;;;;;;;;5131222;27;20091;-83
2023/07/24 11:32:42;;;;;;;2.33;1.17;;;;;;;;;;5134521;27;20424;-85
2023/07/24 11:35:08;;;;;;;1.50;1.00;;;;;;;;;;5134483;27;20023;-86
2023/07/24 11:37:35;;;;;;;2.47;1.48;;;;;;;;;;5133785;27;20030;-84
2023/07/24 11:40:14;;;;;;;1.55;1.08;;;;;;;;;;5134043;27;20402;-85
2023/07/24 11:42:42;;;;;;;1.33;1.08;;;;;;;;;;5127919;27;20037;-85
2023/07/24 11:45:10;;;;;;;2.63;1.35;;;;;;;;;;5132913;27;20059;-88
2023/07/24 11:47:49;;;;;;;1.80;1.37;;;;;;;;;;5109579;27;20023;-86
2023/07/24 11:50:17;;;;;;;2.83;1.35;;;;;;;;;;5134259;27;20026;-84
2023/07/24 11:52:45;;;;;;;2.03;1.35;;;;;;;;;;5131385;27;20403;-84
2023/07/24 11:55:30;;;;;;;2.33;1.48;;;;;;;;;;5131573;27;20028;-85
2023/07/24 11:58:01;;;;;;;1.25;1.02;;;;;;;;;;5133037;27;20118;-83
2023/07/24 12:00:28;;;;;;;2.00;1.35;;;;;;;;;;5112826;27;20430;-90
2023/07/24 12:02:59;;;;;;;1.83;1.38;;;;;;;;;;5113914;27;20023;-84
2023/07/24 12:05:25;;;;;;;3.00;1.63;;;;;;;;;;5133890;27;20019;-85
2023/07/24 12:07:54;;;;;;;1.90;1.20;;;;;;;;;;5134084;27;20536;-83
2023/07/24 12:10:27;;;;;;;;;;;;;;;;;;5114862;27;20041;-82
2023/07/24 12:12:53;;;;;;;3.88;1.75;;;;;;;;;;5137922;27;19922;-84
2023/07/24 12:15:18;;;;;;;1.83;1.23;;;;;;;;;;5133689;27;20105;-83
2023/07/24 12:17:44;;;;;;;1.50;1.20;;;;;;;;;;5132781;27;20467;-82
2023/07/24 12:20:10;;;;;;;2.67;1.65;;;;;;;;;;5134171;27;20535;-86
2023/07/24 12:22:37;;;;;;;3.72;1.88;;;;;;;;;;5133888;27;20395;-84
2023/07/24 12:25:03;;;;;;;3.58;1.65;;;;;;;;;;5133645;27;20068;-84
2023/07/24 12:27:29;;;;;;;2.83;1.92;;;;;;;;;;5129936;27;20039;-85
2023/07/24 12:29:54;;;;;;;4.75;2.40;;;;;;;;;;5114574;28;21926;-84
2023/07/24 12:32:22;;;;;;;2.42;1.70;;;;;;;;;;5132682;27;20031;-84
2023/07/24 12:34:48;;;;;;;2.05;1.40;;;;;;;;;;5131611;27;20446;-84
2023/07/24 12:37:14;;;;;;;3.55;1.45;;;;;;;;;;5134698;27;20360;-84
2023/07/24 12:39:39;;;;;;;3.42;2.00;;;;;;;;;;5133303;27;20026;-85
2023/07/24 12:42:05;;;;;;;4.65;2.15;;;;;;;;;;5133147;27;20023;-88
2023/07/24 12:44:31;;;;;;;3.85;1.83;;;;;;;;;;5113606;27;22957;-86
2023/07/24 12:46:56;;;;;;;2.22;1.17;;;;;;;;;;5115027;27;20083;-86
2023/07/24 12:49:22;;;;;;;1.75;1.27;;;;;;;;;;5113462;27;20053;-85
2023/07/24 12:51:47;;;;;;;2.30;1.25;;;;;;;;;;5133288;27;20516;-85
2023/07/24 12:54:13;;;;;;;2.63;1.90;;;;;;;;;;5130166;27;20019;-86
2023/07/24 12:56:39;;;;;;;3.25;1.50;;;;;;;;;;5133141;27;20023;-85
2023/07/24 12:59:05;;;;;;;3.45;1.63;;;;;;;;;;5130814;27;20102;-85
2023/07/24 13:01:30;;;;;;;3.08;1.73;;;;;;;;;;5113701;27;20110;-84
2023/07/24 13:03:56;;;;;;;3.33;1.73;;;;;;;;;;5114418;27;20110;-86
2023/07/24 13:06:22;;;;;;;2.90;1.90;;;;;;;;;;5131200;27;20103;-82
2023/07/24 13:08:48;;;;;;;5.35;3.17;;;;;;;;;;5132987;27;20080;-84
2023/07/24 13:11:13;;;;;;;51.13;35.60;;;;;;;;;;5133101;27;20482;-83
2023/07/24 13:13:38;;;;;;;11.30;9.48;;;;;;;;;;5133213;27;20019;-83
2023/07/24 13:16:04;;;;;;;4.80;2.45;;;;;;;;;;5112482;27;20049;-83
2023/07/24 13:18:32;;;;;;;2.97;1.70;;;;;;;;;;5114021;27;20041;-83
2023/07/24 13:20:58;;;;;;;2.83;1.75;;;;;;;;;;5130194;27;20023;-84
2023/07/24 13:23:24;;;;;;;2.55;1.80;;;;;;;;;;5132919;27;20072;-83
2023/07/24 13:25:50;;;;;;;1.90;1.45;;;;;;;;;;5126608;27;20023;-83
2023/07/24 13:28:16;;;;;;;3.00;1.60;;;;;;;;;;5132434;27;20502;-84
2023/07/24 13:30:41;;;;;;;2.97;1.98;;;;;;;;;;5132839;27;20075;-83
2023/07/24 13:33:07;;;;;;;2.58;1.10;;;;;;;;;;5109025;27;20052;-84
2023/07/24 13:35:32;;;;;;;2.80;1.67;;;;;;;;;;5131870;27;20110;-84
2023/07/24 13:37:57;;;;;;;4.35;2.25;;;;;;;;;;5131784;27;20113;-84
2023/07/24 13:40:23;;;;;;;2.78;1.75;;;;;;;;;;5127640;27;20059;-84
2023/07/24 13:42:48;;;;;;;2.15;1.52;;;;;;;;;;5127610;27;20034;-84
2023/07/24 13:45:14;;;;;;;2.53;1.70;;;;;;;;;;5132220;27;20050;-85
2023/07/24 13:47:39;;;;;;;2.40;1.35;;;;;;;;;;5110750;27;20023;-83
2023/07/24 13:50:08;;;;;;;2.05;1.27;;;;;;;;;;5129726;27;20027;-85
2023/07/24 13:52:33;;;;;;;;;;;;;;;;;;5113986;27;20183;-84
2023/07/24 13:55:00;;;;;;;4.05;2.17;;;;;;;;;;5113675;27;20410;-86
2023/07/24 13:57:26;;;;;;;3.80;2.05;;;;;;;;;;5112698;27;20027;-87
2023/07/24 13:59:51;;;;;;;2.08;1.63;;;;;;;;;;5132075;27;20023;-87
2023/07/24 14:02:17;;;;;;;2.75;1.60;;;;;;;;;;5130335;27;20405;-84
2023/07/24 14:04:42;;;;;;;2.03;1.30;;;;;;;;;;5131831;27;20027;-83
2023/07/24 14:07:08;;;;;;;2.70;1.70;;;;;;;;;;5128415;27;20025;-85
2023/07/24 14:09:34;;;;;;;3.63;1.98;;;;;;;;;;5131673;27;20026;-86
2023/07/24 14:12:00;;;;;;;3.25;2.00;;;;;;;;;;5127513;27;20058;-84
2023/07/24 14:14:26;;;;;;;3.10;1.90;;;;;;;;;;5108886;27;20076;-86
2023/07/24 14:16:51;;;;;;;2.88;1.83;;;;;;;;;;5122053;27;20031;-86
2023/07/24 14:19:17;;;;;;;3.00;1.70;;;;;;;;;;5117304;27;20038;-85
2023/07/24 14:21:44;;;;;;;2.83;1.65;;;;;;;;;;5134930;27;20035;-85
2023/07/24 14:24:09;;;;;;;4.75;2.20;;;;;;;;;;5107991;27;20111;-85
2023/07/24 14:26:36;;;;;;;3.28;2.03;;;;;;;;;;5123376;27;20488;-86
2023/07/24 14:29:02;;;;;;;2.78;1.45;;;;;;;;;;5125325;27;20375;-86
2023/07/24 14:31:29;;;;;;;5.07;2.28;;;;;;;;;;5128419;27;20027;-87
2023/07/24 14:33:54;;;;;;;3.78;2.00;;;;;;;;;;5129271;27;20030;-86
2023/07/24 14:36:20;;;;;;;3.63;2.00;;;;;;;;;;5131611;27;20082;-86
2023/07/24 14:38:45;;;;;;;5.78;2.40;;;;;;;;;;5111835;28;20050;-83
2023/07/24 14:41:12;;;;;;;5.40;2.70;;;;;;;;;;5130032;28;20117;-82